createdAt,value
2018-06-18T00:02:12.413Z,72.80
2018-06-18T00:04:41.744Z,72.90
2018-06-18T00:07:10.985Z,72.60
2018-06-18T00:09:40.283Z,72.90
2018-06-18T00:12:09.572Z,73.40
2018-06-18T00:14:38.970Z,73.40
2018-06-18T00:17:08.197Z,73.20
2018-06-18T00:19:37.483Z,73.50
2018-06-18T00:22:11.231Z,73.80
2018-06-18T00:24:40.500Z,73.70
2018-06-18T00:27:09.863Z,74.10
2018-06-18T00:29:39.153Z,73.90
2018-06-18T00:32:08.563Z,74.20
2018-06-18T00:34:37.769Z,74.10
2018-06-18T00:37:07.297Z,73.90
2018-06-18T00:39:36.521Z,73.90
2018-06-18T00:42:06.029Z,74.00
2018-06-18T00:44:35.293Z,74.20
2018-06-18T00:47:04.552Z,74.50
2018-06-18T00:49:33.790Z,74.50
2018-06-18T00:52:03.066Z,75.10
2018-06-18T00:54:32.354Z,75.30
2018-06-18T00:57:01.657Z,75.30
2018-06-18T00:59:30.924Z,75.30
2018-06-18T01:02:00.249Z,75.00
2018-06-18T01:04:29.645Z,75.30
2018-06-18T01:06:59.018Z,75.60
2018-06-18T01:09:28.274Z,75.40
2018-06-18T01:11:57.554Z,75.10
2018-06-18T01:14:26.894Z,75.40
2018-06-18T01:16:56.169Z,76.00
2018-06-18T01:19:25.497Z,76.00
2018-06-18T01:21:54.774Z,76.50
2018-06-18T01:25:01.372Z,76.10
2018-06-18T01:27:30.710Z,76.50
2018-06-18T01:29:59.999Z,76.70
2018-06-18T01:32:29.318Z,77.30
2018-06-18T01:34:58.549Z,77.00
2018-06-18T01:37:27.874Z,77.50
2018-06-18T01:39:57.193Z,77.50
2018-06-18T01:42:27.476Z,77.50
2018-06-18T01:44:56.722Z,77.60
2018-06-18T01:47:25.989Z,78.30
2018-06-18T01:49:55.256Z,78.80
2018-06-18T01:52:24.547Z,79.00
2018-06-18T01:54:53.936Z,79.00
2018-06-18T01:57:23.222Z,79.50
2018-06-18T01:59:52.437Z,79.30
2018-06-18T02:02:21.623Z,79.70
2018-06-18T02:04:50.936Z,79.60
2018-06-18T02:07:20.187Z,79.40
2018-06-18T02:09:49.428Z,79.60
2018-06-18T02:12:18.731Z,80.00
2018-06-18T02:14:48.019Z,80.20
2018-06-18T02:17:17.425Z,79.90
2018-06-18T02:19:46.700Z,79.60
2018-06-18T02:22:15.982Z,79.60
2018-06-18T02:24:45.225Z,79.70
2018-06-18T02:27:18.354Z,79.60
2018-06-18T02:29:52.809Z,80.30
2018-06-18T02:32:27.206Z,81.00
2018-06-18T02:35:01.961Z,80.90
2018-06-18T02:37:36.416Z,81.70
2018-06-18T02:40:10.816Z,81.40
2018-06-18T02:42:40.124Z,82.00
2018-06-18T02:45:09.440Z,82.30
2018-06-18T02:47:38.678Z,82.90
2018-06-18T02:50:07.931Z,84.30
2018-06-18T02:52:37.204Z,84.20
2018-06-18T02:55:07.084Z,83.50
2018-06-18T02:57:36.555Z,84.80
2018-06-18T03:00:06.409Z,85.60
2018-06-18T03:02:35.687Z,84.90
2018-06-18T03:05:05.027Z,85.40
2018-06-18T03:07:34.371Z,86.30
2018-06-18T03:10:03.673Z,86.70
2018-06-18T03:12:32.950Z,86.80
2018-06-18T03:15:02.253Z,86.80
2018-06-18T03:17:31.529Z,87.00
2018-06-18T03:20:06.107Z,87.30
2018-06-18T03:22:40.833Z,87.70
2018-06-18T03:25:15.287Z,87.50
2018-06-18T03:27:49.871Z,88.10
2018-06-18T03:30:19.244Z,88.00
2018-06-18T03:32:49.244Z,88.50
2018-06-18T03:35:18.442Z,88.10
2018-06-18T03:37:47.899Z,88.20
2018-06-18T03:40:17.108Z,89.30
2018-06-18T03:42:47.367Z,88.80
2018-06-18T03:45:20.448Z,89.20
2018-06-18T03:47:49.693Z,89.90
2018-06-18T03:50:18.999Z,89.30
2018-06-18T03:52:48.273Z,89.60
2018-06-18T03:55:22.757Z,89.70
2018-06-18T03:57:52.111Z,90.00
2018-06-18T04:00:21.478Z,90.00
2018-06-18T04:02:58.948Z,90.10
2018-06-18T04:05:34.631Z,90.20
2018-06-18T04:08:10.169Z,90.20
2018-06-18T04:10:44.973Z,90.20
2018-06-18T04:13:14.239Z,90.40
2018-06-18T04:15:44.504Z,90.30
2018-06-18T04:18:13.813Z,90.50
2018-06-18T04:20:46.272Z,90.50
2018-06-18T04:23:15.580Z,90.50
2018-06-18T04:25:45.091Z,90.30
2018-06-18T04:28:14.408Z,90.20
2018-06-18T04:30:45.124Z,90.10
2018-06-18T04:33:17.232Z,90.00
2018-06-18T04:35:46.502Z,89.80
2018-06-18T04:38:15.896Z,89.40
2018-06-18T04:40:45.146Z,89.20
2018-06-18T04:43:20.037Z,89.00
2018-06-18T04:45:54.671Z,88.50
2018-06-18T04:48:29.260Z,88.00
2018-06-18T04:51:00.296Z,87.50
2018-06-18T04:53:29.922Z,86.90
2018-06-18T04:55:59.190Z,86.20
2018-06-18T04:58:28.490Z,85.40
2018-06-18T05:01:04.506Z,84.60
2018-06-18T05:03:33.725Z,83.40
2018-06-18T05:06:03.027Z,82.60
2018-06-18T05:08:41.376Z,82.20
2018-06-18T05:11:10.607Z,82.10
2018-06-18T05:13:39.900Z,82.10
2018-06-18T05:16:09.140Z,81.70
2018-06-18T05:18:38.381Z,81.00
2018-06-18T05:21:07.656Z,80.00
2018-06-18T05:23:36.934Z,79.20
2018-06-18T05:26:06.277Z,78.70
2018-06-18T05:28:35.564Z,77.50
2018-06-18T05:31:04.854Z,75.70
2018-06-18T05:33:34.132Z,75.10
2018-06-18T05:36:03.402Z,73.30
2018-06-18T05:38:34.071Z,70.90
2018-06-18T05:41:03.384Z,68.90
2018-06-18T05:43:33.061Z,66.70
2018-06-18T05:46:02.268Z,64.70
2018-06-18T05:48:31.566Z,64.50
2018-06-18T05:51:01.125Z,64.80
2018-06-18T05:53:30.473Z,64.00
2018-06-18T05:55:59.696Z,64.10
2018-06-18T05:58:28.955Z,64.00
2018-06-18T06:00:58.222Z,63.30
2018-06-18T06:03:27.437Z,61.90
2018-06-18T06:05:56.758Z,60.80
2018-06-18T06:08:25.997Z,60.00
2018-06-18T06:10:55.229Z,58.90
2018-06-18T06:13:24.443Z,58.30
2018-06-18T06:15:53.649Z,56.40
2018-06-18T06:18:22.855Z,55.10
2018-06-18T06:20:56.915Z,54.50
2018-06-18T06:23:26.144Z,53.30
2018-06-18T06:25:55.319Z,52.30
2018-06-18T06:28:24.716Z,49.70
2018-06-18T06:30:54.214Z,48.40
2018-06-18T06:33:24.608Z,47.60
2018-06-18T06:35:54.648Z,47.20
2018-06-18T06:38:23.923Z,48.10
2018-06-18T06:40:53.188Z,48.60
2018-06-18T06:43:22.525Z,49.70
2018-06-18T06:45:51.805Z,49.70
2018-06-18T06:48:21.084Z,50.90
2018-06-18T06:50:50.357Z,52.20
2018-06-18T06:53:19.652Z,52.70
2018-06-18T06:55:48.960Z,53.40
2018-06-18T06:58:18.219Z,53.80
2018-06-18T07:00:47.599Z,54.10
2018-06-18T07:03:16.900Z,53.70
2018-06-18T07:05:46.256Z,54.20
2018-06-18T07:08:16.067Z,54.80
2018-06-18T07:10:45.912Z,55.30
2018-06-18T07:13:15.230Z,55.40
2018-06-18T07:15:44.431Z,55.70
2018-06-18T07:18:13.695Z,55.20
2018-06-18T07:20:45.109Z,54.10
2018-06-18T07:23:14.455Z,52.80
2018-06-18T07:25:44.322Z,52.20
2018-06-18T07:28:13.669Z,51.20
2018-06-18T07:30:43.000Z,49.80
2018-06-18T07:33:13.384Z,48.30
2018-06-18T07:35:42.782Z,48.60
2018-06-18T07:38:12.040Z,45.70
2018-06-18T07:40:42.317Z,43.90
2018-06-18T07:43:12.109Z,43.50
2018-06-18T07:45:41.933Z,44.60
2018-06-18T07:48:11.156Z,44.20
2018-06-18T07:50:40.514Z,44.10
2018-06-18T07:53:09.775Z,44.40
2018-06-18T07:55:39.121Z,43.10
2018-06-18T07:58:08.458Z,41.40
2018-06-18T08:00:37.809Z,39.60
2018-06-18T08:03:07.145Z,38.30
2018-06-18T08:05:36.391Z,35.10
2018-06-18T08:08:05.835Z,36.40
2018-06-18T08:10:35.185Z,37.50
2018-06-18T08:13:04.447Z,37.90
2018-06-18T08:15:33.744Z,38.00
2018-06-18T08:18:03.033Z,38.40
2018-06-18T08:20:32.311Z,38.10
2018-06-18T08:23:01.587Z,39.00
2018-06-18T08:25:30.909Z,38.90
2018-06-18T08:28:00.216Z,39.80
2018-06-18T08:30:29.556Z,40.40
2018-06-18T08:32:58.928Z,41.50
2018-06-18T08:35:28.236Z,41.90
2018-06-18T08:37:57.459Z,42.30
2018-06-18T08:40:26.781Z,42.00
2018-06-18T08:42:56.226Z,42.00
2018-06-18T08:45:25.485Z,41.50
2018-06-18T08:47:54.843Z,41.00
2018-06-18T08:50:29.405Z,41.00
2018-06-18T08:53:03.754Z,41.50
2018-06-18T08:55:38.389Z,41.60
2018-06-18T08:58:13.042Z,40.90
2018-06-18T09:00:47.396Z,41.60
2018-06-18T09:03:21.901Z,39.20
2018-06-18T09:05:55.389Z,38.60
2018-06-18T09:08:29.893Z,36.80
2018-06-18T09:10:59.760Z,34.90
2018-06-18T09:13:29.159Z,33.50
2018-06-18T09:15:58.463Z,33.70
2018-06-18T09:18:27.748Z,34.40
2018-06-18T09:20:57.109Z,35.60
2018-06-18T09:23:26.363Z,34.80
2018-06-18T09:26:16.294Z,32.30
2018-06-18T09:28:45.527Z,32.80
2018-06-18T09:31:14.816Z,34.10
2018-06-18T09:33:44.792Z,33.70
2018-06-18T09:36:14.272Z,31.30
2018-06-18T09:38:43.568Z,30.70
2018-06-18T09:41:12.852Z,31.10
2018-06-18T09:43:42.195Z,32.20
2018-06-18T09:46:11.439Z,33.00
2018-06-18T09:48:45.963Z,31.70
2018-06-18T09:51:20.603Z,31.00
2018-06-18T09:53:55.070Z,30.40
2018-06-18T09:56:29.655Z,31.00
2018-06-18T09:59:04.369Z,31.40
2018-06-18T10:01:34.233Z,30.90
2018-06-18T10:04:04.712Z,30.50
2018-06-18T10:06:36.535Z,29.70
2018-06-18T10:09:08.754Z,29.40
2018-06-18T10:11:38.144Z,29.00
2018-06-18T10:14:09.045Z,29.30
2018-06-18T10:16:38.359Z,29.40
2018-06-18T10:19:07.553Z,29.50
2018-06-18T10:21:36.774Z,29.50
2018-06-18T10:24:06.121Z,29.70
2018-06-18T10:26:35.381Z,30.60
2018-06-18T10:29:04.693Z,30.80
2018-06-18T10:31:34.113Z,31.70
2018-06-18T10:34:08.652Z,31.10
2018-06-18T10:36:43.093Z,29.90
2018-06-18T10:39:18.331Z,28.50
2018-06-18T10:41:52.824Z,29.30
2018-06-18T10:44:22.284Z,30.10
2018-06-18T10:46:51.568Z,31.30
2018-06-18T10:49:20.832Z,32.70
2018-06-18T10:51:50.107Z,33.50
2018-06-18T10:54:19.389Z,33.90
2018-06-18T10:56:48.739Z,34.50
2018-06-18T10:59:17.960Z,35.50
2018-06-18T11:01:47.273Z,36.50
2018-06-18T11:04:21.690Z,36.50
2018-06-18T11:06:51.025Z,36.30
2018-06-18T11:09:22.228Z,35.40
2018-06-18T11:11:52.258Z,34.30
2018-06-18T11:14:21.559Z,34.50
2018-06-18T11:16:56.271Z,33.70
2018-06-18T11:19:30.657Z,32.80
2018-06-18T11:22:06.253Z,31.90
2018-06-18T11:24:40.727Z,32.80
2018-06-18T11:27:10.904Z,33.10
2018-06-18T11:29:40.295Z,33.50
2018-06-18T11:32:09.694Z,33.80
2018-06-18T11:34:39.003Z,35.10
2018-06-18T11:37:14.644Z,35.60
2018-06-18T11:39:51.520Z,36.50
2018-06-18T11:42:25.124Z,37.30
2018-06-18T11:45:01.342Z,37.90
2018-06-18T11:47:31.655Z,38.10
2018-06-18T11:50:09.221Z,38.60
2018-06-18T11:52:44.747Z,38.70
2018-06-18T11:55:15.966Z,38.20
2018-06-18T11:57:51.542Z,36.60
2018-06-18T12:00:28.164Z,36.20
2018-06-18T12:03:04.439Z,34.80
2018-06-18T12:05:40.059Z,34.70
2018-06-18T12:08:15.580Z,36.70
2018-06-18T12:10:47.113Z,37.40
2018-06-18T12:13:20.550Z,36.80
2018-06-18T12:15:49.951Z,36.50
2018-06-18T12:18:19.203Z,37.10
2018-06-18T12:20:48.510Z,37.60
2018-06-18T12:23:17.924Z,37.90
2018-06-18T12:25:51.276Z,37.70
2018-06-18T12:28:28.851Z,38.10
2018-06-18T12:30:58.813Z,38.60
2018-06-18T12:33:28.110Z,39.60
2018-06-18T12:35:57.502Z,39.50
2018-06-18T12:38:26.890Z,40.40
2018-06-18T12:40:56.140Z,41.40
2018-06-18T12:43:27.616Z,41.80
2018-06-18T12:46:02.173Z,41.90
2018-06-18T12:48:36.802Z,42.10
2018-06-18T12:51:11.359Z,42.10
2018-06-18T12:53:45.986Z,42.60
2018-06-18T12:56:20.694Z,42.90
2018-06-18T12:58:51.509Z,43.30
2018-06-18T13:01:22.868Z,43.70
2018-06-18T13:03:52.302Z,43.90
2018-06-18T13:06:22.767Z,44.00
2018-06-18T13:08:52.073Z,44.10
2018-06-18T13:11:21.506Z,43.90
2018-06-18T13:13:50.948Z,43.60
2018-06-18T13:16:21.987Z,43.10
2018-06-18T13:18:51.283Z,43.00
2018-06-18T13:21:20.793Z,43.10
2018-06-18T13:23:50.011Z,43.30
2018-06-18T13:26:19.277Z,43.40
2018-06-18T13:28:48.827Z,43.70
2018-06-18T13:31:18.347Z,44.00
2018-06-18T13:33:47.822Z,44.20
2018-06-18T13:36:17.374Z,44.00
2018-06-18T13:38:51.762Z,44.10
2018-06-18T13:41:26.123Z,42.90
2018-06-18T13:44:00.700Z,42.30
2018-06-18T13:46:35.044Z,41.90
2018-06-18T13:49:07.585Z,42.20
2018-06-18T13:51:38.525Z,42.90
2018-06-18T13:54:08.121Z,43.60
2018-06-18T13:56:37.810Z,44.30
2018-06-18T13:59:07.448Z,44.50
2018-06-18T14:01:36.783Z,43.40
2018-06-18T14:04:06.282Z,43.30
2018-06-18T14:06:36.264Z,41.90
2018-06-18T14:09:07.010Z,41.10
2018-06-18T14:11:36.663Z,40.60
2018-06-18T14:14:06.724Z,40.80
2018-06-18T14:16:36.221Z,41.80
2018-06-18T14:19:10.927Z,43.30
2018-06-18T14:21:40.252Z,44.10
2018-06-18T14:24:09.628Z,44.40
2018-06-18T14:26:39.346Z,44.90
2018-06-18T14:29:12.876Z,45.30
2018-06-18T14:31:47.484Z,45.70
2018-06-18T14:34:22.099Z,46.00
2018-06-18T14:36:56.507Z,46.50
2018-06-18T14:39:46.624Z,47.30
2018-06-18T14:42:16.136Z,47.40
2018-06-18T14:44:45.359Z,48.00
2018-06-18T14:47:16.357Z,48.30
2018-06-18T14:49:45.814Z,48.30
2018-06-18T14:52:15.303Z,48.40
2018-06-18T14:54:46.091Z,48.70
2018-06-18T14:57:15.679Z,48.90
2018-06-18T14:59:53.584Z,49.20
2018-06-18T15:02:23.663Z,49.20
2018-06-18T15:04:53.605Z,49.30
2018-06-18T15:07:23.559Z,49.20
2018-06-18T15:09:52.921Z,49.30
2018-06-18T15:12:24.514Z,49.20
2018-06-18T15:14:59.098Z,49.30
2018-06-18T15:17:28.416Z,49.70
2018-06-18T15:19:58.432Z,49.80
2018-06-18T15:22:29.701Z,49.50
2018-06-18T15:25:04.987Z,49.30
2018-06-18T15:27:35.118Z,49.10
2018-06-18T15:30:04.900Z,48.90
2018-06-18T15:32:34.311Z,48.90
2018-06-18T15:35:05.539Z,49.00
2018-06-18T15:37:34.916Z,49.40
2018-06-18T15:40:04.484Z,50.00
2018-06-18T15:42:33.877Z,50.20
2018-06-18T15:45:03.510Z,50.60
2018-06-18T15:47:33.196Z,50.80
2018-06-18T15:50:03.301Z,50.70
2018-06-18T15:52:32.656Z,50.90
2018-06-18T15:55:02.165Z,51.10
2018-06-18T15:57:31.671Z,51.30
2018-06-18T16:00:01.336Z,51.60
2018-06-18T16:02:30.619Z,51.90
2018-06-18T16:04:59.903Z,52.40
2018-06-18T16:07:29.191Z,52.60
2018-06-18T16:09:58.534Z,52.80
2018-06-18T16:12:27.759Z,53.00
2018-06-18T16:14:57.074Z,53.10
2018-06-18T16:17:26.452Z,53.10
2018-06-18T16:19:55.689Z,53.10
2018-06-18T16:22:25.109Z,52.40
2018-06-18T16:24:54.591Z,52.50
2018-06-18T16:27:23.896Z,52.50
2018-06-18T16:29:53.169Z,52.30
2018-06-18T16:32:22.442Z,52.00
2018-06-18T16:34:51.731Z,52.20
2018-06-18T16:37:21.870Z,51.90
2018-06-18T16:39:51.052Z,52.10
2018-06-18T16:42:20.346Z,52.00
2018-06-18T16:44:49.627Z,52.20
2018-06-18T16:47:18.969Z,52.70
2018-06-18T16:49:48.496Z,52.90
2018-06-18T16:52:17.823Z,52.80
2018-06-18T16:54:47.183Z,52.50
2018-06-18T16:57:16.672Z,52.50
2018-06-18T16:59:46.036Z,52.50
2018-06-18T17:02:15.419Z,52.30
2018-06-18T17:04:44.669Z,52.50
2018-06-18T17:07:15.183Z,52.60
2018-06-18T17:09:49.322Z,52.80
2018-06-18T17:12:19.892Z,53.10
2018-06-18T17:14:49.803Z,53.40
2018-06-18T17:17:20.741Z,53.60
2018-06-18T17:19:54.948Z,53.90
2018-06-18T17:22:24.831Z,54.10
2018-06-18T17:24:54.674Z,54.40
2018-06-18T17:27:25.043Z,54.60
2018-06-18T17:29:57.035Z,54.90
2018-06-18T17:32:26.832Z,55.00
2018-06-18T17:34:56.271Z,55.40
2018-06-18T17:37:27.184Z,55.70
2018-06-18T17:39:56.444Z,56.10
2018-06-18T17:42:25.817Z,56.40
2018-06-18T17:44:55.036Z,56.60
2018-06-18T17:47:24.335Z,56.70
2018-06-18T17:49:54.876Z,56.90
2018-06-18T17:52:24.359Z,57.00
2018-06-18T17:54:54.153Z,57.30
2018-06-18T17:57:23.575Z,57.50
2018-06-18T17:59:53.439Z,57.70
2018-06-18T18:02:22.886Z,57.70
2018-06-18T18:04:57.361Z,58.00
2018-06-18T18:07:28.791Z,58.30
2018-06-18T18:09:59.337Z,58.70
2018-06-18T18:12:28.754Z,59.00
2018-06-18T18:14:58.807Z,59.40
2018-06-18T18:17:29.017Z,59.40
2018-06-18T18:19:58.630Z,59.70
2018-06-18T18:22:28.574Z,59.80
2018-06-18T18:24:57.941Z,60.10
2018-06-18T18:27:39.964Z,60.40
2018-06-18T18:30:16.127Z,60.40
2018-06-18T18:33:03.170Z,61.00
2018-06-18T18:35:40.070Z,61.30
2018-06-18T18:38:15.131Z,61.50
2018-06-18T18:40:48.630Z,62.00
2018-06-18T18:43:22.514Z,62.10
2018-06-18T18:45:55.336Z,62.20
2018-06-18T18:48:31.067Z,62.50
2018-06-18T18:51:02.959Z,62.80
2018-06-18T18:53:33.757Z,62.90
2018-06-18T18:56:15.961Z,63.20
2018-06-18T18:59:00.618Z,63.40
2018-06-18T19:01:34.294Z,63.50
2018-06-18T19:04:07.590Z,63.70
2018-06-18T19:06:40.915Z,63.90
2018-06-18T19:09:12.860Z,64.20
2018-06-18T19:11:43.523Z,64.50
2018-06-18T19:14:15.293Z,64.70
2018-06-18T19:16:47.540Z,71.70
2018-06-18T19:19:21.846Z,77.50
2018-06-18T19:21:57.325Z,81.40
2018-06-18T19:24:38.369Z,84.40
2018-06-18T19:27:08.321Z,87.30
2018-06-18T19:29:38.933Z,89.40
2018-06-18T19:32:09.200Z,90.00
2018-06-18T19:34:40.072Z,90.30
2018-06-18T19:37:13.164Z,90.50
2018-06-18T19:39:50.557Z,90.40
2018-06-18T19:42:24.177Z,90.40
2018-06-18T19:44:57.236Z,90.70
2018-06-18T19:47:39.009Z,90.90
2018-06-18T19:50:09.915Z,90.80
2018-06-18T19:52:40.704Z,91.20
2018-06-18T19:55:14.948Z,91.10
2018-06-18T19:57:45.423Z,91.10
2018-06-18T20:00:15.756Z,91.00
2018-06-18T20:02:48.079Z,91.20
2018-06-18T20:05:17.777Z,91.20
2018-06-18T20:07:54.014Z,91.30
2018-06-18T20:10:25.377Z,91.30
2018-06-18T20:12:56.250Z,91.40
2018-06-18T20:15:27.472Z,91.60
2018-06-18T20:17:58.273Z,91.70
2018-06-18T20:20:31.367Z,91.50
2018-06-18T20:23:05.082Z,91.50
2018-06-18T20:25:39.456Z,91.80
2018-06-18T20:28:09.576Z,91.90
2018-06-18T20:30:45.462Z,92.10
2018-06-18T20:33:16.914Z,92.30
2018-06-18T20:35:56.982Z,92.30
2018-06-18T20:38:26.773Z,92.30
2018-06-18T20:40:57.991Z,92.50
2018-06-18T20:44:35.168Z,92.60
2018-06-18T20:47:04.811Z,92.60
2018-06-18T20:49:34.117Z,92.60
2018-06-18T20:52:04.777Z,92.60
2018-06-18T20:54:34.196Z,93.00
2018-06-18T20:57:03.783Z,93.30
2018-06-18T20:59:33.182Z,93.00
2018-06-18T21:02:02.652Z,93.30
2018-06-18T21:04:32.392Z,93.40
2018-06-18T21:07:02.995Z,93.20
2018-06-18T21:09:32.419Z,93.40
2018-06-18T21:12:01.877Z,93.20
2018-06-18T21:14:31.282Z,93.20
2018-06-18T21:17:00.635Z,93.20
2018-06-18T21:19:29.958Z,93.10
2018-06-18T21:21:59.331Z,93.10
2018-06-18T21:24:28.612Z,93.10
2018-06-18T21:26:57.988Z,93.50
2018-06-18T21:29:27.356Z,93.50
2018-06-18T21:31:56.695Z,93.60
2018-06-18T21:34:25.961Z,93.90
2018-06-18T21:36:55.368Z,93.80
2018-06-18T21:39:24.608Z,93.80
2018-06-18T21:41:53.958Z,93.90
2018-06-18T21:44:29.181Z,94.10
2018-06-18T21:46:58.499Z,94.10
2018-06-18T21:49:27.980Z,94.10
2018-06-18T21:51:57.488Z,94.30
2018-06-18T21:54:26.791Z,94.50
2018-06-18T21:56:56.168Z,94.60
2018-06-18T21:59:25.497Z,94.60
2018-06-18T22:01:54.782Z,94.40
2018-06-18T22:04:24.036Z,94.70
2018-06-18T22:06:53.331Z,94.50
2018-06-18T22:09:22.920Z,94.60
2018-06-18T22:11:53.878Z,94.60
2018-06-18T22:14:24.027Z,94.50
2018-06-18T22:16:53.440Z,94.80
2018-06-18T22:19:22.660Z,95.10
2018-06-18T22:21:51.995Z,95.20
2018-06-18T22:24:21.312Z,94.90
2018-06-18T22:26:50.649Z,94.80
2018-06-18T22:29:19.904Z,95.20
2018-06-18T22:31:49.199Z,94.90
2018-06-18T22:34:18.478Z,95.10
2018-06-18T22:36:47.785Z,95.10
2018-06-18T22:39:17.083Z,95.00
2018-06-18T22:41:46.380Z,95.10
2018-06-18T22:44:15.662Z,95.30
2018-06-18T22:46:44.955Z,95.00
2018-06-18T22:49:14.264Z,95.00
2018-06-18T22:51:43.552Z,95.20
2018-06-18T22:54:12.852Z,95.30
2018-06-18T22:56:42.219Z,95.10
2018-06-18T22:59:11.534Z,95.20
2018-06-18T23:01:40.972Z,95.40
2018-06-18T23:04:10.268Z,95.40
2018-06-18T23:06:39.480Z,95.10
2018-06-18T23:09:10.665Z,95.10
2018-06-18T23:11:40.068Z,94.90
2018-06-18T23:14:12.220Z,95.00
2018-06-18T23:16:41.504Z,95.10
2018-06-18T23:19:10.781Z,95.20
2018-06-18T23:21:40.497Z,95.30
2018-06-18T23:24:09.717Z,95.40
2018-06-18T23:26:39.231Z,95.20
2018-06-18T23:29:11.304Z,95.50
2018-06-18T23:31:40.589Z,95.50
2018-06-18T23:34:09.982Z,95.30
2018-06-18T23:36:39.284Z,95.00
2018-06-18T23:39:09.945Z,95.20
2018-06-18T23:41:45.814Z,95.40
2018-06-18T23:44:15.120Z,95.20
2018-06-18T23:46:44.415Z,95.20
2018-06-18T23:49:13.743Z,95.40
2018-06-18T23:51:42.983Z,95.20
2018-06-18T23:56:41.950Z,95.50
2018-06-18T23:59:11.308Z,95.40
